aviador You're here:

KRST Decoded Metar

ROCHESTER in MN, USA
Report Time2017-08-19 13:54:00
UTC Time2017-08-19 14:56:04
Flight Rules vfr VFR
Wind230° at 07 kt
W.Decomp.*RWY 20: 6.1 kt HW 3.4 kt RCW
RWY 31: 1.1 kt HW 6.9 kt LCW
W.Rank230° ranks 25
Current wind is below 230° avg. (9.8)
Visibility9999 m
Phenomena:N/A
Clouds:N/A
Expected CloudBase > 800 ft AGL from Temp-Dew spread
CeilingNone
Temp18°C (ISA +6)
Dew Point16°C (88% RH)
AAT17.5°C
QNH1016 hPa
Density Alt2,129 ft
Elevation1,322 ft
Report Wrong Elevation
Raw Report
KRST 191354Z 23007KT 10SM CLR 18/16 A2999 RMK AO2 SLP154
T01830161=

Extra information for KRST:More info

Metar Taf Metar & Taf Last 4 Metars F.Rules Stats Wind Profile Meteogram Temp Stats Airport Information Weather charts Add Link Nearby VenuesMetar ALERT Operation Metar Decoded Social comments

AIRNAV info for KRST